LFSTLFJL

Guest
Details From LFST - Entzheim
To LFJL - Metz-Nancy-Lorraine
Flight Number -
Tags generated
Created
Modified
Stats Distance 61 nm / 113 km
Max Altitude 7,600 ft / 2,316 m
Waypoints 3
Social Downloads 0
Likes 0
Share VATSIM

Download

Looking for another format? Having issues loading an existing format? Contact us
Advertisement - Login to hide

Notes

Basic altitude profile: - Ascent Rate: 2500ft/min - Ascent Speed: 250kts - Cruise Altitude: 35000ft - Cruise Speed: 420kts - Descent Rate: 1500ft/min - Descent Speed: 250kts Options: - Use NATs: yes - Use PACOTS: yes - Use low airways: yes - Use high airways: yes

Route

LFST PHALO LFJL

ID Type Via Altitude Latitude Longitude Leg Dist Tot Dist Heading (true) Name
O LFST APT - 0 ft / 0 m 48.53833˚ 7.62826˚ - 0 nm - Entzheim
PHALO FIX - 7,600 ft / 2,316 m 48.77778˚ 7.09528˚ 25 nm 25 nm 304° / 304° -
O LFJL APT - 0 ft / 0 m 48.98065˚ 6.24947˚ 35 nm 61 nm 290° / 290° Metz-Nancy-Lorraine

Altitude Profile

Advertisement - Login to hide

LFST

Details ICAO LFST (SXB)
Name Entzheim
Region France
Timezone Europe/Paris (UTC+1.0)
Stats Elevation 504 ft / 154 m (AMSL)
Location 48.538335° 7.628265°
Runways 1
Magnetic Variation 2.105° E

METAR

LFST 170400Z AUTO 27005KT 9999 FEW026 OVC047 02/00 Q1022 NOSIG

Decode

TAF

TAF LFST 162300Z 1700/1724 25004KT 9999 SCT020 BKN045 PROB30 TEMPO 1711/1714 -SHRASN BKN014 PROB30 TEMPO 1718/1724 4500 BR

Decode

Departure Runways

ID Width Length Bearing (true) Bearing (mag) Surface Threshold Offset Overrun Length
05 148 ft / 45 m 7,899 ft / 2,408 m 48.60° 46.50° Asphalt 0 ft / 0 m 860 ft / 262 m
23 148 ft / 45 m 7,899 ft / 2,408 m 228.62° 226.52° Asphalt 0 ft / 0 m 902 ft / 275 m

LFJL

Details ICAO LFJL (ETZ)
Name Metz-Nancy-Lorraine
Region France
Timezone Europe/Paris (UTC+1.0)
Stats Elevation 870 ft / 265 m (AMSL)
Location 48.980645° 6.249473°
Runways 1
Magnetic Variation 1.719° E

METAR

LFJL 170400Z AUTO 24006KT 6000 FEW006 BKN058 M01/M02 Q1021 BECMG BKN007

Decode

TAF

TAF LFJL 162300Z 1700/1724 28005KT 9999 BKN020 TEMPO 1700/1705 BKN008 BECMG 1705/1707 BKN007 PROB40 TEMPO 1707/1711 2500 -SHSN OVC003 BECMG 1712/1715 BKN025

Decode

Destination Runways

ID Width Length Bearing (true) Bearing (mag) Surface Threshold Offset Overrun Length
04 148 ft / 45 m 10,016 ft / 3,053 m 39.13° 37.41° Asphalt 656 ft / 200 m 0 ft / 0 m
22 148 ft / 45 m 10,016 ft / 3,053 m 219.15° 217.43° Asphalt 0 ft / 0 m 0 ft / 0 m

Approach Navaids

Runway Type Ident Frequency Range Bearing (true) Bearing (mag) Slope Elevation
04 Localiser MLY 111.75 MHz 18 nm / 33 km 39.16° 37.44° - 869 ft / 265 m (AMSL)
04 Glidescope MLY 111.75 MHz 10 nm / 19 km 39.14° 37.42° 3.00° 869 ft / 265 m (AMSL)
22 Localiser MLY 111.75 MHz 18 nm / 33 km 219.20° 217.48° - 870 ft / 265 m (AMSL)
22 Glidescope MLY 111.75 MHz 10 nm / 19 km 219.14° 217.42° 3.00° 870 ft / 265 m (AMSL)
22 DME MLY 111.75 MHz 18 nm / 33 km - - - 919 ft / 280 m (AMSL)

Popular Alternatives